Time;durP1;ratioP1;P1;durP2;ratioP2;P2;SDS_P1;SDS_P2;PMS_P1;PMS_P2;Temp;Humidity;BMP_temperature;BMP_pressure;BME280_temperature;BME280_humidity;BME280_pressure;Samples;Min_cycle;Max_cycle;Signal;HPM_P1;HPM_P2
2022/07/20 00:01:03;;;;;;;;;;;23.00;90.30;;;;;;5049415;28;19925;-72
2022/07/20 00:03:28;;;;;;;;;;;22.90;90.30;;;;;;5049909;28;19982;-72
2022/07/20 00:05:55;;;;;;;;;;;22.90;91.40;;;;;;5046180;28;20402;-72
2022/07/20 00:11:19;;;;;;;;;;;22.90;91.40;;;;;;5048432;28;19924;-73
2022/07/20 00:11:21;;;;;;;;;;;22.90;90.70;;;;;;5047500;28;19920;-72
2022/07/20 00:13:54;;;;;;;;;;;22.80;90.90;;;;;;5049154;28;20423;-72
2022/07/20 00:16:20;;;;;;;;;;;22.70;90.90;;;;;;5047726;28;20331;-73
2022/07/20 00:18:46;;;;;;;;;;;22.70;92.60;;;;;;5049459;28;19963;-73
2022/07/20 00:21:12;;;;;;;;;;;22.70;92.10;;;;;;5048388;28;19967;-72
2022/07/20 00:23:37;;;;;;;;;;;22.60;92.20;;;;;;5046311;28;19928;-72
2022/07/20 00:26:03;;;;;;;;;;;22.60;93.60;;;;;;5081678;28;20391;-73
2022/07/20 00:28:28;;;;;;;;;;;22.50;94.40;;;;;;5048195;28;19974;-71
2022/07/20 00:30:54;;;;;;;;;;;22.40;94.90;;;;;;5049055;28;19931;-73
2022/07/20 00:33:20;;;;;;;;;;;22.40;95.30;;;;;;5048899;28;19927;-72
2022/07/20 00:35:45;;;;;;;;;;;22.30;96.00;;;;;;5049413;28;19927;-72
2022/07/20 00:38:12;;;;;;;;;;;22.30;95.20;;;;;;5047106;28;19927;-73
2022/07/20 00:40:38;;;;;;;;;;;22.20;94.40;;;;;;5045779;28;19929;-72
2022/07/20 00:43:03;;;;;;;;;;;22.20;95.00;;;;;;5046955;28;19928;-73
2022/07/20 00:45:29;;;;;;;;;;;22.20;95.40;;;;;;5045396;28;20371;-71
2022/07/20 00:47:54;;;;;;;;;;;22.10;95.00;;;;;;5048937;28;19921;-72
2022/07/20 00:50:20;;;;;;;;;;;22.10;95.60;;;;;;5047525;28;19973;-71
2022/07/20 00:52:46;;;;;;;;;;;22.00;96.20;;;;;;5048327;28;19941;-72
2022/07/20 00:55:12;;;;;;;;;;;22.00;96.40;;;;;;5042540;28;19967;-73
2022/07/20 00:57:38;;;;;;;;;;;21.90;96.30;;;;;;5047859;28;19953;-72
2022/07/20 01:00:06;;;;;;;;;;;21.90;95.30;;;;;;5080985;28;20023;-73
2022/07/20 01:02:31;;;;;;;;;;;21.80;95.10;;;;;;5045998;28;20710;-72
2022/07/20 01:04:57;;;;;;;;;;;21.80;95.60;;;;;;5045108;28;19928;-72
2022/07/20 01:07:23;;;;;;;;;;;21.80;95.10;;;;;;5047022;28;19924;-73
2022/07/20 01:09:49;;;;;;;;;;;21.70;95.80;;;;;;5047560;28;20011;-73
2022/07/20 01:12:14;;;;;;;;;;;21.70;95.50;;;;;;5046871;28;20016;-72
2022/07/20 01:14:40;;;;;;;;;;;21.70;95.00;;;;;;5045977;28;19925;-72
2022/07/20 01:17:06;;;;;;;;;;;21.70;95.80;;;;;;5046248;28;19921;-73
2022/07/20 01:19:31;;;;;;;;;;;21.60;95.20;;;;;;5047975;28;20005;-72
2022/07/20 01:21:57;;;;;;;;;;;21.70;95.80;;;;;;5048487;28;19928;-71
2022/07/20 01:24:22;;;;;;;;;;;21.70;95.50;;;;;;5047112;28;19932;-73
2022/07/20 01:26:48;;;;;;;;;;;21.70;95.60;;;;;;5047541;28;19931;-73
2022/07/20 01:29:14;;;;;;;;;;;21.60;96.60;;;;;;5079009;28;19925;-73
2022/07/20 01:31:40;;;;;;;;;;;21.60;95.10;;;;;;5046808;28;19920;-73
2022/07/20 01:34:06;;;;;;;;;;;21.60;96.40;;;;;;5047459;28;19931;-73
2022/07/20 01:36:32;;;;;;;;;;;21.60;97.00;;;;;;5047078;28;20052;-73
2022/07/20 01:38:57;;;;;;;;;;;21.50;98.00;;;;;;5046032;28;19990;-72
2022/07/20 01:41:23;;;;;;;;;;;21.50;96.60;;;;;;5047025;28;19921;-72
2022/07/20 01:43:48;;;;;;;;;;;21.40;97.10;;;;;;5045510;28;19921;-72
2022/07/20 01:46:14;;;;;;;;;;;21.40;96.80;;;;;;5047195;28;19920;-73
2022/07/20 01:48:40;;;;;;;;;;;21.40;96.00;;;;;;5046022;28;20060;-73
2022/07/20 01:51:05;;;;;;;;;;;21.30;96.30;;;;;;5078185;28;19968;-73
2022/07/20 01:53:31;;;;;;;;;;;21.30;96.50;;;;;;5047219;28;19928;-73
2022/07/20 01:55:57;;;;;;;;;;;21.30;96.50;;;;;;5046504;28;19933;-73
2022/07/20 01:58:22;;;;;;;;;;;21.30;95.90;;;;;;5047729;28;19931;-72
2022/07/20 02:00:49;;;;;;;;;;;21.30;97.50;;;;;;5046300;28;20026;-73
2022/07/20 02:03:14;;;;;;;;;;;21.30;96.90;;;;;;5046495;28;19928;-73
2022/07/20 02:05:40;;;;;;;;;;;21.20;98.10;;;;;;5043247;28;19924;-73
2022/07/20 02:08:06;;;;;;;;;;;21.20;96.50;;;;;;5078462;28;19931;-72
2022/07/20 02:10:32;;;;;;;;;;;21.20;96.20;;;;;;5047552;28;19960;-72
2022/07/20 02:12:58;;;;;;;;;;;21.20;96.00;;;;;;5045637;28;19933;-73
2022/07/20 02:18:11;;;;;;;;;;;21.20;97.70;;;;;;5079103;28;19925;-72
2022/07/20 02:20:36;;;;;;;;;;;21.10;98.30;;;;;;5046341;28;19921;-72
2022/07/20 02:23:03;;;;;;;;;;;21.10;99.30;;;;;;5045266;28;19981;-72
2022/07/20 02:25:29;;;;;;;;;;;21.00;99.50;;;;;;5046756;28;19921;-72
2022/07/20 02:27:54;;;;;;;;;;;20.90;99.50;;;;;;5044818;28;19927;-73
2022/07/20 02:30:20;;;;;;;;;;;20.90;99.00;;;;;;5047473;28;19932;-73
2022/07/20 02:32:46;;;;;;;;;;;20.90;98.70;;;;;;5046912;28;19921;-73
2022/07/20 02:35:12;;;;;;;;;;;20.90;99.90;;;;;;5077842;28;19928;-73
2022/07/20 02:37:37;;;;;;;;;;;20.80;99.90;;;;;;5077398;28;20410;-71
2022/07/20 02:40:03;;;;;;;;;;;20.80;99.90;;;;;;5044365;28;19921;-73
2022/07/20 02:42:29;;;;;;;;;;;20.70;99.80;;;;;;5043345;28;19921;-72
2022/07/20 02:44:54;;;;;;;;;;;20.70;99.90;;;;;;5044162;28;19921;-73
2022/07/20 02:47:20;;;;;;;;;;;20.70;99.90;;;;;;5044341;28;20015;-73
2022/07/20 02:49:45;;;;;;;;;;;20.60;99.90;;;;;;5044509;28;19925;-72
2022/07/20 02:52:11;;;;;;;;;;;20.60;99.90;;;;;;5043026;28;19932;-72
2022/07/20 02:54:36;;;;;;;;;;;20.50;99.90;;;;;;5042558;28;19928;-72
2022/07/20 02:57:02;;;;;;;;;;;20.50;99.90;;;;;;5044118;28;19928;-72
2022/07/20 02:59:28;;;;;;;;;;;20.40;99.90;;;;;;5044186;28;19925;-72
2022/07/20 03:01:53;;;;;;;;;;;20.40;99.90;;;;;;5046707;28;20006;-73
2022/07/20 03:04:19;;;;;;;;;;;20.30;99.90;;;;;;5045609;28;19922;-72
2022/07/20 03:06:44;;;;;;;;;;;20.30;99.90;;;;;;5045856;28;19925;-72
2022/07/20 03:09:10;;;;;;;;;;;20.30;99.90;;;;;;5045921;28;19928;-72
2022/07/20 03:11:35;;;;;;;;;;;20.30;99.90;;;;;;5044658;28;19940;-71
2022/07/20 03:14:01;;;;;;;;;;;20.20;99.90;;;;;;5045131;28;19921;-72
2022/07/20 03:16:27;;;;;;;;;;;20.20;99.90;;;;;;5046162;28;20034;-72
2022/07/20 03:18:52;;;;;;;;;;;20.20;99.90;;;;;;5046586;28;19932;-71
2022/07/20 03:21:18;;;;;;;;;;;20.20;99.90;;;;;;5045161;28;19925;-72
2022/07/20 03:23:43;;;;;;;;;;;20.20;99.90;;;;;;5044319;28;19936;-73
2022/07/20 03:26:09;;;;;;;;;;;20.20;99.90;;;;;;5044087;28;19921;-72
2022/07/20 03:28:34;;;;;;;;;;;20.20;99.90;;;;;;5046780;28;20011;-72
2022/07/20 03:31:00;;;;;;;;;;;20.20;99.90;;;;;;5044353;28;19927;-72
2022/07/20 03:33:25;;;;;;;;;;;20.20;99.90;;;;;;5046410;28;19966;-72
2022/07/20 03:35:51;;;;;;;;;;;20.20;99.90;;;;;;5048533;28;19924;-71
2022/07/20 03:38:16;;;;;;;;;;;20.30;99.90;;;;;;5050807;28;19920;-72
2022/07/20 03:40:42;;;;;;;;;;;20.20;99.90;;;;;;5049274;28;19927;-72
2022/07/20 03:43:07;;;;;;;;;;;20.20;99.90;;;;;;5049074;28;19963;-72
2022/07/20 03:45:33;;;;;;;;;;;20.20;99.70;;;;;;5048218;28;19920;-73
2022/07/20 03:47:59;;;;;;;;;;;20.30;99.40;;;;;;5047405;28;20006;-73
2022/07/20 03:50:24;;;;;;;;;;;20.30;99.60;;;;;;5048833;28;19925;-73
2022/07/20 03:52:50;;;;;;;;;;;20.30;98.90;;;;;;5049822;28;19921;-72
2022/07/20 03:55:16;;;;;;;;;;;20.30;99.30;;;;;;5049184;28;19960;-73
2022/07/20 03:57:41;;;;;;;;;;;20.30;99.60;;;;;;5048771;28;19929;-72
2022/07/20 04:00:07;;;;;;;;;;;20.30;99.90;;;;;;5049332;28;19937;-73
2022/07/20 04:02:33;;;;;;;;;;;20.30;99.90;;;;;;5049013;28;20439;-73
2022/07/20 04:04:58;;;;;;;;;;;20.30;99.90;;;;;;5048625;28;20003;-72
2022/07/20 04:07:24;;;;;;;;;;;20.30;99.90;;;;;;5048781;28;19924;-73
2022/07/20 04:09:50;;;;;;;;;;;20.30;99.90;;;;;;5046510;28;19928;-73
2022/07/20 04:12:20;;;;;;;;;;;20.30;99.40;;;;;;5047941;28;20294;-73
2022/07/20 04:14:46;;;;;;;;;;;20.30;99.70;;;;;;5048775;28;19920;-73
2022/07/20 04:17:12;;;;;;;;;;;20.30;99.20;;;;;;5049265;28;19924;-73
2022/07/20 04:19:38;;;;;;;;;;;20.30;99.10;;;;;;5048689;28;19925;-73
2022/07/20 04:22:04;;;;;;;;;;;20.30;98.60;;;;;;5047870;28;20047;-73
2022/07/20 04:24:30;;;;;;;;;;;20.30;98.00;;;;;;5046958;28;20000;-73
2022/07/20 04:26:55;;;;;;;;;;;20.30;98.00;;;;;;5048600;28;20417;-73
2022/07/20 04:29:22;;;;;;;;;;;20.30;98.70;;;;;;5049390;28;19933;-73
2022/07/20 04:31:48;;;;;;;;;;;20.30;98.40;;;;;;5048343;28;20640;-73
2022/07/20 04:34:14;;;;;;;;;;;20.30;98.10;;;;;;5048526;28;20363;-73
2022/07/20 04:36:39;;;;;;;;;;;20.30;98.50;;;;;;5047280;28;19927;-73
2022/07/20 04:39:05;;;;;;;;;;;20.30;98.50;;;;;;5079586;28;19921;-72
2022/07/20 04:41:30;;;;;;;;;;;20.30;99.90;;;;;;5047473;28;19925;-72
2022/07/20 04:43:56;;;;;;;;;;;20.30;99.90;;;;;;5046706;28;19928;-72
2022/07/20 04:46:22;;;;;;;;;;;20.30;99.90;;;;;;5047459;28;20307;-73
2022/07/20 04:48:48;;;;;;;;;;;20.30;99.90;;;;;;5047559;28;20365;-73
2022/07/20 04:51:13;;;;;;;;;;;20.30;99.90;;;;;;5048875;28;19932;-73
2022/07/20 04:53:39;;;;;;;;;;;20.30;99.90;;;;;;5047060;28;19925;-72
2022/07/20 04:56:04;;;;;;;;;;;20.30;99.90;;;;;;5047922;28;19925;-72
2022/07/20 04:58:33;;;;;;;;;;;20.30;99.90;;;;;;5048716;28;20030;-73
2022/07/20 05:00:59;;;;;;;;;;;20.30;99.90;;;;;;5048441;28;20291;-72
2022/07/20 05:03:24;;;;;;;;;;;20.20;99.90;;;;;;5063775;28;19928;-73
2022/07/20 05:05:50;;;;;;;;;;;20.30;99.90;;;;;;5079919;28;19968;-72
2022/07/20 05:08:15;;;;;;;;;;;20.30;99.90;;;;;;5046793;28;19920;-72
2022/07/20 05:10:41;;;;;;;;;;;20.30;99.90;;;;;;5046337;28;19921;-73
2022/07/20 05:13:06;;;;;;;;;;;20.40;99.90;;;;;;5046648;28;19939;-72
2022/07/20 05:15:32;;;;;;;;;;;20.40;99.90;;;;;;5047958;28;19928;-72
2022/07/20 05:17:57;;;;;;;;;;;20.40;99.90;;;;;;5079817;28;19967;-72
2022/07/20 05:20:23;;;;;;;;;;;20.40;99.90;;;;;;5048055;28;19924;-72
2022/07/20 05:22:49;;;;;;;;;;;20.50;99.90;;;;;;5046063;28;19933;-73
2022/07/20 05:25:14;;;;;;;;;;;20.50;99.90;;;;;;5046651;28;19921;-73
2022/07/20 05:27:40;;;;;;;;;;;20.60;99.90;;;;;;5045982;28;19924;-73
2022/07/20 05:30:06;;;;;;;;;;;20.60;99.90;;;;;;5046348;28;20411;-72
2022/07/20 05:32:31;;;;;;;;;;;20.60;99.90;;;;;;5046370;28;19963;-73
2022/07/20 05:34:57;;;;;;;;;;;20.70;99.90;;;;;;5047976;28;19921;-72
2022/07/20 05:37:23;;;;;;;;;;;20.70;99.90;;;;;;5047472;28;19929;-71
2022/07/20 05:39:48;;;;;;;;;;;20.80;99.90;;;;;;5046483;28;19921;-71
2022/07/20 05:42:14;;;;;;;;;;;20.80;99.90;;;;;;5043437;28;19925;-71
2022/07/20 05:44:39;;;;;;;;;;;20.90;99.90;;;;;;5046741;28;19928;-72
2022/07/20 05:47:09;;;;;;;;;;;21.00;99.90;;;;;;5076559;28;19928;-71
2022/07/20 05:49:35;;;;;;;;;;;21.10;99.90;;;;;;5046695;28;20294;-71
2022/07/20 05:52:02;;;;;;;;;;;21.20;99.90;;;;;;5044327;28;19998;-71
2022/07/20 05:54:27;;;;;;;;;;;21.20;99.90;;;;;;5044874;28;19924;-71
2022/07/20 05:56:53;;;;;;;;;;;21.30;99.90;;;;;;5042205;28;19936;-72
2022/07/20 05:59:18;;;;;;;;;;;21.40;99.90;;;;;;5045755;28;19964;-73
2022/07/20 06:01:44;;;;;;;;;;;21.50;99.90;;;;;;5043776;28;19925;-72
2022/07/20 06:04:13;;;;;;;;;;;21.60;99.90;;;;;;5046023;28;19998;-72
2022/07/20 06:06:39;;;;;;;;;;;21.70;99.90;;;;;;5041985;28;20404;-72
2022/07/20 06:09:05;;;;;;;;;;;21.80;99.90;;;;;;5077869;28;20024;-72
2022/07/20 06:11:31;;;;;;;;;;;22.00;99.90;;;;;;5050177;28;20019;-72
2022/07/20 06:13:56;;;;;;;;;;;22.10;99.90;;;;;;5048271;28;19928;-72
2022/07/20 06:16:22;;;;;;;;;;;22.30;99.80;;;;;;5049219;28;20467;-72
2022/07/20 06:18:47;;;;;;;;;;;22.40;99.80;;;;;;5049582;28;20415;-72
2022/07/20 06:21:14;;;;;;;;;;;22.60;99.90;;;;;;5043226;28;20027;-72
2022/07/20 06:23:40;;;;;;;;;;;22.70;99.80;;;;;;5050183;28;19944;-72
2022/07/20 06:26:06;;;;;;;;;;;22.90;99.40;;;;;;5047214;28;20047;-72
2022/07/20 06:28:31;;;;;;;;;;;22.90;98.80;;;;;;5044363;28;20417;-72
2022/07/20 06:30:57;;;;;;;;;;;23.00;98.60;;;;;;5043037;28;20395;-73
2022/07/20 06:33:23;;;;;;;;;;;23.10;98.50;;;;;;5043914;28;19932;-72
2022/07/20 06:35:48;;;;;;;;;;;23.30;97.80;;;;;;5046416;28;20384;-72
2022/07/20 06:38:14;;;;;;;;;;;23.40;97.00;;;;;;5044950;28;20310;-73
2022/07/20 06:40:39;;;;;;;;;;;23.60;95.30;;;;;;5043214;28;19920;-72
2022/07/20 06:43:05;;;;;;;;;;;23.80;94.20;;;;;;5075123;28;19921;-72
2022/07/20 06:45:30;;;;;;;;;;;24.00;94.40;;;;;;5044587;28;20379;-73
2022/07/20 06:47:56;;;;;;;;;;;24.10;93.90;;;;;;5046374;28;19925;-72
2022/07/20 06:50:22;;;;;;;;;;;24.30;92.80;;;;;;5044023;28;20386;-72
2022/07/20 06:52:47;;;;;;;;;;;24.40;92.30;;;;;;5044310;28;20004;-73
2022/07/20 06:55:13;;;;;;;;;;;24.50;91.80;;;;;;5042861;28;20457;-73
2022/07/20 06:57:38;;;;;;;;;;;24.60;91.40;;;;;;5045851;28;20437;-73
2022/07/20 07:00:07;;;;;;;;;;;24.80;91.40;;;;;;5044083;28;20295;-72
2022/07/20 07:02:33;;;;;;;;;;;24.90;90.50;;;;;;5043976;28;19935;-73
2022/07/20 07:04:59;;;;;;;;;;;25.10;88.20;;;;;;5042770;28;19928;-73
2022/07/20 07:07:24;;;;;;;;;;;25.10;87.70;;;;;;5045850;28;19951;-72
2022/07/20 07:09:50;;;;;;;;;;;25.20;88.50;;;;;;5052098;28;19927;-72
2022/07/20 07:12:15;;;;;;;;;;;25.30;90.20;;;;;;5049513;28;20406;-72
2022/07/20 07:14:41;;;;;;;;;;;25.40;90.00;;;;;;5045900;28;20396;-72
2022/07/20 07:17:07;;;;;;;;;;;25.50;89.10;;;;;;5081166;28;20334;-72
2022/07/20 07:19:32;;;;;;;;;;;25.60;89.70;;;;;;5048917;28;20415;-72
2022/07/20 07:21:58;;;;;;;;;;;25.70;90.40;;;;;;5048537;28;20387;-72
2022/07/20 07:24:23;;;;;;;;;;;25.80;90.40;;;;;;5049938;28;19944;-73
2022/07/20 07:26:49;;;;;;;;;;;25.90;90.70;;;;;;5048662;28;20648;-73
2022/07/20 07:29:15;;;;;;;;;;;26.00;89.60;;;;;;5049128;28;20382;-73
2022/07/20 07:31:40;;;;;;;;;;;26.10;90.40;;;;;;5046059;28;20280;-73
2022/07/20 07:34:06;;;;;;;;;;;26.20;90.60;;;;;;5078527;28;20383;-73
2022/07/20 07:36:32;;;;;;;;;;;26.40;91.90;;;;;;5049529;28;20014;-71
2022/07/20 07:38:57;;;;;;;;;;;26.50;91.30;;;;;;5051196;28;20280;-71
2022/07/20 07:41:23;;;;;;;;;;;26.70;91.00;;;;;;5043780;28;19968;-72
2022/07/20 07:43:49;;;;;;;;;;;26.70;91.90;;;;;;5045173;28;20693;-73
2022/07/20 07:46:15;;;;;;;;;;;26.90;91.60;;;;;;5047571;28;20363;-73
2022/07/20 07:48:40;;;;;;;;;;;26.90;92.50;;;;;;5053783;28;20427;-73
2022/07/20 07:51:06;;;;;;;;;;;27.00;92.10;;;;;;5054564;28;20391;-73
2022/07/20 07:53:31;;;;;;;;;;;27.00;92.00;;;;;;5048890;28;19975;-73
2022/07/20 07:55:57;;;;;;;;;;;27.10;93.20;;;;;;5051931;28;20379;-73
2022/07/20 07:58:23;;;;;;;;;;;27.20;93.60;;;;;;5049329;28;20383;-73
2022/07/20 08:00:49;;;;;;;;;;;27.30;93.60;;;;;;5050912;28;19978;-73
2022/07/20 08:03:15;;;;;;;;;;;27.10;94.50;;;;;;5076632;28;19920;-73
2022/07/20 08:05:40;;;;;;;;;;;27.20;95.00;;;;;;5044913;28;20287;-73
2022/07/20 08:08:07;;;;;;;;;;;27.20;95.20;;;;;;5046528;28;19921;-73
2022/07/20 08:10:33;;;;;;;;;;;27.20;96.10;;;;;;5042321;28;19933;-71
2022/07/20 08:12:58;;;;;;;;;;;27.30;96.30;;;;;;5045966;28;19935;-73
2022/07/20 08:15:24;;;;;;;;;;;27.40;96.60;;;;;;5043482;28;19935;-72
2022/07/20 08:17:49;;;;;;;;;;;27.40;97.00;;;;;;5044045;28;19928;-73
2022/07/20 08:20:15;;;;;;;;;;;27.50;96.30;;;;;;5042143;28;19951;-72
2022/07/20 08:22:41;;;;;;;;;;;27.60;96.10;;;;;;5075838;28;20075;-73
2022/07/20 08:25:06;;;;;;;;;;;27.70;96.50;;;;;;5045335;28;19921;-72
2022/07/20 08:27:32;;;;;;;;;;;27.70;96.10;;;;;;5045305;28;19932;-72
2022/07/20 08:30:01;;;;;;;;;;;27.80;97.30;;;;;;5042487;28;19924;-73
2022/07/20 08:32:27;;;;;;;;;;;27.70;96.90;;;;;;5063323;28;19992;-72
2022/07/20 08:34:52;;;;;;;;;;;27.60;97.40;;;;;;5054299;28;20094;-73
2022/07/20 08:37:18;;;;;;;;;;;27.60;97.70;;;;;;5084199;28;19921;-73
2022/07/20 08:39:43;;;;;;;;;;;27.70;99.20;;;;;;5053078;28;20019;-72
2022/07/20 08:42:10;;;;;;;;;;;27.70;97.70;;;;;;5043132;28;20043;-73
2022/07/20 08:44:35;;;;;;;;;;;27.70;97.90;;;;;;5051947;28;19921;-73
2022/07/20 08:47:01;;;;;;;;;;;27.80;98.10;;;;;;5053755;28;19925;-73
2022/07/20 08:49:26;;;;;;;;;;;27.90;99.00;;;;;;5053615;28;19925;-73
2022/07/20 08:51:52;;;;;;;;;;;28.10;97.80;;;;;;5052613;28;20283;-73
2022/07/20 08:54:18;;;;;;;;;;;28.30;97.30;;;;;;5051157;28;19971;-73
2022/07/20 08:56:43;;;;;;;;;;;28.30;96.30;;;;;;5044074;28;19929;-72
2022/07/20 08:59:09;;;;;;;;;;;28.40;96.10;;;;;;5050988;28;19927;-73
2022/07/20 09:01:54;;;;;;;;;;;28.40;94.90;;;;;;5053639;28;20024;-73
2022/07/20 09:04:20;;;;;;;;;;;28.50;93.60;;;;;;5046886;28;20451;-72
2022/07/20 09:06:49;;;;;;;;;;;28.60;93.10;;;;;;5058363;28;20023;-72
2022/07/20 09:09:16;;;;;;;;;;;28.60;92.90;;;;;;5050759;28;19960;-72
2022/07/20 09:11:41;;;;;;;;;;;28.70;92.70;;;;;;5045453;28;19925;-72
2022/07/20 09:14:07;;;;;;;;;;;28.80;93.10;;;;;;5049641;28;19967;-72
2022/07/20 09:16:40;;;;;;;;;;;28.90;92.00;;;;;;5053091;28;19931;-72
2022/07/20 09:19:06;;;;;;;;;;;28.90;91.40;;;;;;5049993;28;19933;-72
2022/07/20 09:21:32;;;;;;;;;;;28.90;92.10;;;;;;5050572;28;20012;-72
2022/07/20 09:24:01;;;;;;;;;;;28.90;92.00;;;;;;5084180;28;21204;-72
2022/07/20 09:26:27;;;;;;;;;;;28.90;91.40;;;;;;5051338;28;20279;-72
2022/07/20 09:28:54;;;;;;;;;;;29.10;90.30;;;;;;5052105;28;19933;-72
2022/07/20 09:31:25;;;;;;;;;;;29.20;89.20;;;;;;5051862;28;19921;-72
2022/07/20 09:33:52;;;;;;;;;;;28.90;87.20;;;;;;5081010;28;19921;-72
2022/07/20 09:36:18;;;;;;;;;;;28.80;88.80;;;;;;5052515;28;20394;-72
2022/07/20 09:38:44;;;;;;;;;;;28.90;89.30;;;;;;5051814;28;20436;-72
2022/07/20 09:41:22;;;;;;;;;;;28.90;89.00;;;;;;5051878;28;19921;-72
2022/07/20 09:43:47;;;;;;;;;;;29.00;90.60;;;;;;5079666;28;19921;-72
2022/07/20 09:46:14;;;;;;;;;;;29.10;89.00;;;;;;5051420;28;20418;-72
2022/07/20 09:48:45;;;;;;;;;;;29.10;89.20;;;;;;5050357;28;20430;-72
2022/07/20 09:51:40;;;;;;;;;;;29.40;89.10;;;;;;5083334;28;20406;-72
2022/07/20 09:54:16;;;;;;;;;;;29.60;87.50;;;;;;5066242;28;20505;-72
2022/07/20 09:56:42;;;;;;;;;;;29.70;84.90;;;;;;5052324;28;20390;-72
2022/07/20 09:59:10;;;;;;;;;;;29.70;83.90;;;;;;5050931;28;20776;-71
2022/07/20 10:01:38;;;;;;;;;;;29.60;83.50;;;;;;5051081;28;19917;-72
2022/07/20 10:04:05;;;;;;;;;;;29.60;85.20;;;;;;5046040;28;20401;-72
2022/07/20 10:06:31;;;;;;;;;;;29.40;83.50;;;;;;5049985;28;20343;-72
2022/07/20 10:08:57;;;;;;;;;;;29.50;82.50;;;;;;5050201;28;19925;-73
2022/07/20 10:11:24;;;;;;;;;;;29.70;83.00;;;;;;5048839;28;20304;-72
2022/07/20 10:13:52;;;;;;;;;;;29.80;81.50;;;;;;5045807;28;20866;-72
2022/07/20 10:16:23;;;;;;;;;;;29.90;78.70;;;;;;5048842;28;19921;-72
2022/07/20 10:18:49;;;;;;;;;;;29.80;76.50;;;;;;5047849;28;20431;-73
2022/07/20 10:21:33;;;;;;;;;;;30.00;76.60;;;;;;5051127;28;20011;-72
2022/07/20 10:24:18;;;;;;;;;;;30.10;75.00;;;;;;5079279;28;19968;-72
2022/07/20 10:26:44;;;;;;;;;;;30.20;74.80;;;;;;5050774;28;20389;-72
2022/07/20 10:29:10;;;;;;;;;;;30.50;72.70;;;;;;5051589;28;20334;-72
2022/07/20 10:31:49;;;;;;;;;;;30.60;71.50;;;;;;5051908;28;19921;-72
2022/07/20 10:34:33;;;;;;;;;;;30.70;70.30;;;;;;5048057;28;20371;-72
2022/07/20 10:37:19;;;;;;;;;;;30.90;71.40;;;;;;5051874;28;19964;-72
2022/07/20 10:39:45;;;;;;;;;;;31.00;70.80;;;;;;5044446;28;20565;-72
2022/07/20 10:42:20;;;;;;;;;;;31.30;70.50;;;;;;5045558;28;19935;-72
2022/07/20 10:44:45;;;;;;;;;;;31.40;69.30;;;;;;5046895;28;19947;-72
2022/07/20 10:47:30;;;;;;;;;;;31.50;70.00;;;;;;5047634;28;20447;-72
2022/07/20 10:50:03;;;;;;;;;;;31.60;68.50;;;;;;5044565;28;19979;-72
2022/07/20 10:52:29;;;;;;;;;;;31.60;66.20;;;;;;5045530;28;19925;-72
2022/07/20 10:54:55;;;;;;;;;;;31.40;63.50;;;;;;5046882;28;19921;-73
2022/07/20 10:57:21;;;;;;;;;;;31.50;64.60;;;;;;5043318;28;20410;-72
2022/07/20 10:59:59;;;;;;;;;;;31.40;63.50;;;;;;5047406;28;19920;-72
2022/07/20 11:02:24;;;;;;;;;;;31.40;62.50;;;;;;5047438;28;19925;-72
2022/07/20 11:04:50;;;;;;;;;;;31.30;62.80;;;;;;5044584;28;20713;-72
2022/07/20 11:07:32;;;;;;;;;;;31.30;62.70;;;;;;5044223;28;20399;-72
2022/07/20 11:09:58;;;;;;;;;;;31.20;63.30;;;;;;5045362;28;20418;-72
2022/07/20 11:12:30;;;;;;;;;;;31.30;63.50;;;;;;5041619;28;19921;-72
2022/07/20 11:14:56;;;;;;;;;;;31.30;64.50;;;;;;5043857;28;20088;-72
2022/07/20 11:17:22;;;;;;;;;;;31.70;64.90;;;;;;5044355;28;20016;-72
2022/07/20 11:19:48;;;;;;;;;;;31.60;62.30;;;;;;5077848;28;19943;-72
2022/07/20 11:22:14;;;;;;;;;;;31.70;63.50;;;;;;5045312;28;21115;-72
2022/07/20 11:24:39;;;;;;;;;;;31.70;62.70;;;;;;5040346;28;19925;-73
2022/07/20 11:27:15;;;;;;;;;;;31.80;61.70;;;;;;5041027;28;19929;-72
2022/07/20 11:29:48;;;;;;;;;;;31.80;62.30;;;;;;5038896;28;19956;-72
2022/07/20 11:32:14;;;;;;;;;;;31.70;62.10;;;;;;5057517;28;20031;-72
2022/07/20 11:34:46;;;;;;;;;;;31.40;63.30;;;;;;5044236;28;20642;-72
2022/07/20 11:37:13;;;;;;;;;;;31.20;62.70;;;;;;5049644;28;19967;-72
2022/07/20 11:39:39;;;;;;;;;;;31.40;63.90;;;;;;5043279;28;19966;-72
2022/07/20 11:42:16;;;;;;;;;;;31.40;62.10;;;;;;5040887;28;20338;-72
2022/07/20 11:45:01;;;;;;;;;;;31.60;64.30;;;;;;5043452;28;19921;-72
2022/07/20 11:47:27;;;;;;;;;;;31.40;61.50;;;;;;5037793;28;21518;-72
2022/07/20 11:50:09;;;;;;;;;;;31.10;60.90;;;;;;5026911;28;19929;-72
2022/07/20 11:52:41;;;;;;;;;;;31.00;62.10;;;;;;5042996;28;19971;-72
2022/07/20 11:55:07;;;;;;;;;;;31.10;62.10;;;;;;5042301;28;19928;-72
2022/07/20 11:57:32;;;;;;;;;;;31.30;62.10;;;;;;5046422;28;20015;-72
2022/07/20 11:59:58;;;;;;;;;;;31.30;62.60;;;;;;5045040;28;20023;-72
2022/07/20 12:02:24;;;;;;;;;;;31.50;63.40;;;;;;5043934;28;19928;-72
2022/07/20 12:04:50;;;;;;;;;;;31.30;60.90;;;;;;5061270;28;19929;-72
2022/07/20 12:10:15;;;;;;;;;;;31.50;60.30;;;;;;5044902;28;19928;-72
2022/07/20 12:12:47;;;;;;;;;;;31.60;59.60;;;;;;5043916;28;19921;-70
2022/07/20 12:15:13;;;;;;;;;;;31.70;60.60;;;;;;5050060;28;19975;-72
2022/07/20 12:17:50;;;;;;;;;;;31.70;58.90;;;;;;5045723;28;19928;-72
2022/07/20 12:20:16;;;;;;;;;;;31.50;61.60;;;;;;5044799;28;19929;-71
2022/07/20 12:22:49;;;;;;;;;;;31.80;60.00;;;;;;5035819;28;19932;-72
2022/07/20 12:25:14;;;;;;;;;;;32.00;60.30;;;;;;5043509;28;19928;-72
2022/07/20 12:27:42;;;;;;;;;;;32.20;59.60;;;;;;5045341;28;19925;-72
2022/07/20 12:30:27;;;;;;;;;;;32.50;60.50;;;;;;5046046;28;20023;-73
2022/07/20 12:33:19;;;;;;;;;;;32.70;57.20;;;;;;5039722;28;20039;-73
2022/07/20 12:35:46;;;;;;;;;;;32.70;57.70;;;;;;5038654;28;19935;-72
2022/07/20 12:38:12;;;;;;;;;;;32.90;58.00;;;;;;5044590;28;19921;-73
2022/07/20 12:40:48;;;;;;;;;;;33.10;58.00;;;;;;5045837;28;19928;-73
2022/07/20 12:43:32;;;;;;;;;;;33.10;58.20;;;;;;5079253;28;20003;-72
2022/07/20 12:46:02;;;;;;;;;;;33.10;57.40;;;;;;5047999;28;20015;-72
2022/07/20 12:48:28;;;;;;;;;;;33.30;57.40;;;;;;5044699;28;19920;-72
2022/07/20 12:50:53;;;;;;;;;;;33.40;56.10;;;;;;5040615;28;19935;-72
2022/07/20 12:53:19;;;;;;;;;;;33.50;57.00;;;;;;5043925;28;19921;-72
2022/07/20 12:55:44;;;;;;;;;;;33.40;53.70;;;;;;5043507;28;19921;-73
2022/07/20 12:58:10;;;;;;;;;;;33.20;54.50;;;;;;5043021;28;19928;-72
2022/07/20 13:00:36;;;;;;;;;;;32.80;53.10;;;;;;5044424;28;19936;-73
2022/07/20 13:03:02;;;;;;;;;;;32.60;54.50;;;;;;5042947;28;19928;-72
2022/07/20 13:05:28;;;;;;;;;;;32.70;55.70;;;;;;5040475;28;19924;-72
2022/07/20 13:07:54;;;;;;;;;;;32.90;55.20;;;;;;5040085;28;19921;-72
2022/07/20 13:10:20;;;;;;;;;;;33.00;55.70;;;;;;5043741;28;19978;-72
2022/07/20 13:12:45;;;;;;;;;;;33.20;54.70;;;;;;5047623;28;20299;-72
2022/07/20 13:15:11;;;;;;;;;;;32.90;53.10;;;;;;5045374;28;19927;-71
2022/07/20 13:17:36;;;;;;;;;;;33.10;55.30;;;;;;5043137;28;20333;-72
2022/07/20 13:20:03;;;;;;;;;;;33.20;53.00;;;;;;5043207;28;19947;-72
2022/07/20 13:22:29;;;;;;;;;;;33.40;54.40;;;;;;5043625;28;19946;-72
2022/07/20 13:24:54;;;;;;;;;;;33.50;52.70;;;;;;5041187;28;19966;-72
2022/07/20 13:27:20;;;;;;;;;;;33.40;52.80;;;;;;5042574;28;19927;-72
2022/07/20 13:29:46;;;;;;;;;;;33.40;52.40;;;;;;5044183;28;19925;-72
2022/07/20 13:32:11;;;;;;;;;;;33.10;51.50;;;;;;5076331;28;19921;-72
2022/07/20 13:34:37;;;;;;;;;;;33.10;51.70;;;;;;5047778;28;19921;-72
2022/07/20 13:37:03;;;;;;;;;;;32.90;51.30;;;;;;5044823;28;19929;-71
2022/07/20 13:39:29;;;;;;;;;;;32.70;52.30;;;;;;5042070;28;19928;-72
2022/07/20 13:41:54;;;;;;;;;;;32.70;53.00;;;;;;5042906;28;19924;-72
2022/07/20 13:44:20;;;;;;;;;;;32.60;53.10;;;;;;5042611;28;19921;-72
2022/07/20 13:46:47;;;;;;;;;;;32.50;53.80;;;;;;5041929;28;20010;-72
2022/07/20 13:49:12;;;;;;;;;;;32.50;53.80;;;;;;5041391;28;19925;-72
2022/07/20 13:51:38;;;;;;;;;;;32.60;53.10;;;;;;5042841;28;19921;-71
2022/07/20 13:54:04;;;;;;;;;;;32.70;54.50;;;;;;5040526;28;19921;-71
2022/07/20 13:56:31;;;;;;;;;;;33.00;54.60;;;;;;5043166;28;19928;-71
2022/07/20 13:58:57;;;;;;;;;;;33.20;53.80;;;;;;5043335;28;19921;-71
2022/07/20 14:01:23;;;;;;;;;;;33.30;54.10;;;;;;5043470;28;19946;-72
2022/07/20 14:03:48;;;;;;;;;;;32.80;54.00;;;;;;5045627;28;19920;-72
2022/07/20 14:06:14;;;;;;;;;;;32.90;54.80;;;;;;5048018;28;19920;-72
2022/07/20 14:08:39;;;;;;;;;;;33.00;55.00;;;;;;5051074;28;19920;-72
2022/07/20 14:11:05;;;;;;;;;;;33.10;54.50;;;;;;5051063;28;19921;-72
2022/07/20 14:13:31;;;;;;;;;;;33.30;55.60;;;;;;5050870;28;19946;-72
2022/07/20 14:15:56;;;;;;;;;;;33.50;55.60;;;;;;5046441;28;19927;-72
2022/07/20 14:18:22;;;;;;;;;;;33.60;54.10;;;;;;5049681;28;20157;-72
2022/07/20 14:20:48;;;;;;;;;;;33.60;53.00;;;;;;5050910;28;19950;-72